createdAt,value
2023-04-08T00:01:04.095Z,101406.00
2023-04-08T00:03:34.232Z,101395.00
2023-04-08T00:06:04.836Z,101401.00
2023-04-08T00:08:37.372Z,101396.00
2023-04-08T00:11:07.370Z,101399.00
2023-04-08T00:13:37.324Z,101400.00
2023-04-08T00:16:08.111Z,101403.00
2023-04-08T00:18:38.575Z,101394.00
2023-04-08T00:21:08.743Z,101404.00
2023-04-08T00:23:41.288Z,101407.00
2023-04-08T00:26:11.257Z,101407.00
2023-04-08T00:28:41.505Z,101400.00
2023-04-08T00:31:11.875Z,101393.00
2023-04-08T00:33:41.893Z,101407.00
2023-04-08T00:36:11.838Z,101397.00
2023-04-08T00:38:44.406Z,101394.00
2023-04-08T00:41:14.516Z,101394.00
2023-04-08T00:43:44.508Z,101401.00
2023-04-08T00:46:14.547Z,101399.00
2023-04-08T00:48:44.566Z,101399.00
2023-04-08T00:51:15.034Z,101399.00
2023-04-08T00:53:47.665Z,101400.00
2023-04-08T00:56:17.639Z,101409.00
2023-04-08T00:58:47.769Z,101406.00
2023-04-08T01:01:25.885Z,101399.00
2023-04-08T01:04:08.550Z,101407.00
2023-04-08T01:06:47.091Z,101408.00
2023-04-08T01:09:24.217Z,101412.00
2023-04-08T01:11:57.154Z,101411.00
2023-04-08T01:14:31.227Z,101414.00
2023-04-08T01:17:03.685Z,101418.00
2023-04-08T01:19:36.932Z,101414.00
2023-04-08T01:22:15.973Z,101417.00
2023-04-08T01:24:50.961Z,101412.00
2023-04-08T01:27:24.210Z,101419.00
2023-04-08T01:29:54.638Z,101421.00
2023-04-08T01:32:24.976Z,101412.00
2023-04-08T01:34:55.526Z,101417.00
2023-04-08T01:37:26.743Z,101417.00
2023-04-08T01:39:58.390Z,101413.00
2023-04-08T01:42:32.867Z,101412.00
2023-04-08T01:45:03.786Z,101404.00
2023-04-08T01:47:35.105Z,101408.00
2023-04-08T01:50:06.134Z,101418.00
2023-04-08T01:52:41.937Z,101438.00
2023-04-08T01:55:12.477Z,101430.00
2023-04-08T01:57:51.740Z,101430.00
2023-04-08T02:00:26.178Z,101434.00
2023-04-08T02:02:57.822Z,101447.00
2023-04-08T02:05:27.974Z,101444.00
2023-04-08T02:07:57.910Z,101442.00
2023-04-08T02:10:28.113Z,101440.00
2023-04-08T02:13:01.669Z,101441.00
2023-04-08T02:15:37.327Z,101435.00
2023-04-08T02:18:14.490Z,101431.00
2023-04-08T02:20:51.593Z,101438.00
2023-04-08T02:23:24.767Z,101437.00
2023-04-08T02:25:58.867Z,101431.00
2023-04-08T02:28:33.793Z,101430.00
2023-04-08T02:31:05.912Z,101439.00
2023-04-08T02:33:37.833Z,101439.00
2023-04-08T02:36:10.000Z,101441.00
2023-04-08T02:38:40.076Z,101438.00
2023-04-08T02:41:10.058Z,101443.00
2023-04-08T02:43:42.578Z,101457.00
2023-04-08T02:46:14.393Z,101457.00
2023-04-08T02:48:44.413Z,101453.00
2023-04-08T02:51:14.396Z,101459.00
2023-04-08T02:53:44.374Z,101456.00
2023-04-08T02:56:14.526Z,101465.00
2023-04-08T02:58:47.206Z,101464.00
2023-04-08T03:01:17.801Z,101466.00
2023-04-08T03:03:47.831Z,101458.00
2023-04-08T03:06:17.951Z,101472.00
2023-04-08T03:08:48.024Z,101464.00
2023-04-08T03:11:18.102Z,101474.00
2023-04-08T03:13:50.739Z,101465.00
2023-04-08T03:16:20.750Z,101482.00
2023-04-08T03:18:52.645Z,101476.00
2023-04-08T03:21:22.772Z,101479.00
2023-04-08T03:23:52.752Z,101481.00
2023-04-08T03:26:22.711Z,101490.00
2023-04-08T03:28:56.111Z,101488.00
2023-04-08T03:31:26.347Z,101483.00
2023-04-08T03:33:56.355Z,101484.00
2023-04-08T03:36:26.927Z,101488.00
2023-04-08T03:38:56.920Z,101483.00
2023-04-08T03:41:26.989Z,101491.00
2023-04-08T03:43:59.610Z,101489.00
2023-04-08T03:46:29.649Z,101495.00
2023-04-08T03:48:59.637Z,101490.00
2023-04-08T03:51:29.615Z,101492.00
2023-04-08T03:53:59.593Z,101497.00
2023-04-08T03:56:29.644Z,101497.00
2023-04-08T03:59:02.209Z,101499.00
2023-04-08T04:01:32.567Z,101498.00
2023-04-08T04:04:02.860Z,101500.00
2023-04-08T04:06:32.966Z,101508.00
2023-04-08T04:09:03.011Z,101511.00
2023-04-08T04:11:32.970Z,101510.00
2023-04-08T04:14:05.825Z,101512.00
2023-04-08T04:16:35.786Z,101522.00
2023-04-08T04:19:05.809Z,101523.00
2023-04-08T04:21:35.773Z,101521.00
2023-04-08T04:24:05.847Z,101518.00
2023-04-08T04:26:35.791Z,101529.00
2023-04-08T04:29:08.325Z,101525.00
2023-04-08T04:31:38.362Z,101517.00
2023-04-08T04:34:08.498Z,101536.00
2023-04-08T04:36:38.442Z,101537.00
2023-04-08T04:39:08.385Z,101541.00
2023-04-08T04:41:40.731Z,101544.00
2023-04-08T04:44:13.352Z,101545.00
2023-04-08T04:46:43.426Z,101550.00
2023-04-08T04:49:13.612Z,101543.00
2023-04-08T04:51:43.563Z,101548.00
2023-04-08T04:54:13.531Z,101545.00
2023-04-08T04:56:43.488Z,101551.00
2023-04-08T04:59:16.428Z,101560.00
2023-04-08T05:01:46.704Z,101551.00
2023-04-08T05:04:16.702Z,101556.00
2023-04-08T05:06:46.660Z,101558.00
2023-04-08T05:09:16.697Z,101559.00
2023-04-08T05:11:46.652Z,101563.00
2023-04-08T05:14:19.194Z,101564.00
2023-04-08T05:16:49.150Z,101558.00
2023-04-08T05:19:19.105Z,101557.00
2023-04-08T05:21:49.050Z,101567.00
2023-04-08T05:24:19.023Z,101579.00
2023-04-08T05:26:52.406Z,101582.00
2023-04-08T05:29:26.149Z,101585.00
2023-04-08T05:31:56.521Z,101588.00
2023-04-08T05:34:26.582Z,101585.00
2023-04-08T05:36:56.701Z,101586.00
2023-04-08T05:39:26.717Z,101586.00
2023-04-08T05:41:56.670Z,101589.00
2023-04-08T05:44:29.220Z,101593.00
2023-04-08T05:47:00.598Z,101591.00
2023-04-08T05:49:30.759Z,101596.00
2023-04-08T05:52:00.690Z,101597.00
2023-04-08T05:54:30.721Z,101602.00
2023-04-08T05:57:00.684Z,101604.00
2023-04-08T05:59:33.195Z,101603.00
2023-04-08T06:02:07.409Z,101601.00
2023-04-08T06:04:37.643Z,101616.00
2023-04-08T06:07:08.631Z,101623.00
2023-04-08T06:09:39.826Z,101614.00
2023-04-08T06:12:09.767Z,101625.00
2023-04-08T06:14:42.959Z,101624.00
2023-04-08T06:17:13.094Z,101628.00
2023-04-08T06:19:43.016Z,101625.00
2023-04-08T06:22:13.010Z,101628.00
2023-04-08T06:24:43.289Z,101638.00
2023-04-08T06:27:13.428Z,101633.00
2023-04-08T06:29:46.233Z,101638.00
2023-04-08T06:32:16.674Z,101639.00
2023-04-08T06:34:48.621Z,101647.00
2023-04-08T06:37:18.759Z,101644.00
2023-04-08T06:39:48.706Z,101649.00
2023-04-08T06:42:18.692Z,101646.00
2023-04-08T06:44:51.223Z,101645.00
2023-04-08T06:47:21.212Z,101639.00
2023-04-08T06:49:51.205Z,101653.00
2023-04-08T06:52:21.398Z,101660.00
2023-04-08T06:54:51.353Z,101666.00
2023-04-08T06:57:21.282Z,101667.00
2023-04-08T07:02:37.662Z,101682.00
2023-04-08T07:05:09.257Z,101679.00
2023-04-08T07:07:39.367Z,101672.00
2023-04-08T07:10:11.188Z,101674.00
2023-04-08T07:12:41.398Z,101681.00
2023-04-08T07:15:13.350Z,101685.00
2023-04-08T07:17:46.448Z,101693.00
2023-04-08T07:20:16.809Z,101687.00
2023-04-08T07:22:46.768Z,101692.00
2023-04-08T07:25:16.892Z,101705.00
2023-04-08T07:27:46.904Z,101705.00
2023-04-08T07:30:16.980Z,101699.00
2023-04-08T07:32:49.586Z,101699.00
2023-04-08T07:35:24.482Z,101702.00
2023-04-08T07:37:55.208Z,101714.00
2023-04-08T07:40:25.278Z,101702.00
2023-04-08T07:42:55.339Z,101713.00
2023-04-08T07:45:25.396Z,101706.00
2023-04-08T07:47:57.959Z,101707.00
2023-04-08T07:50:27.954Z,101715.00
2023-04-08T07:52:57.885Z,101715.00
2023-04-08T07:55:27.944Z,101713.00
2023-04-08T07:57:58.146Z,101718.00
2023-04-08T08:00:30.369Z,101723.00
2023-04-08T08:03:02.967Z,101727.00
2023-04-08T08:05:33.239Z,101725.00
2023-04-08T08:08:03.222Z,101723.00
2023-04-08T08:10:33.184Z,101720.00
2023-04-08T08:13:03.308Z,101724.00
2023-04-08T08:15:33.296Z,101731.00
2023-04-08T08:18:06.272Z,101731.00
2023-04-08T08:20:36.280Z,101735.00
2023-04-08T08:23:06.307Z,101732.00
2023-04-08T08:25:36.234Z,101737.00
2023-04-08T08:28:06.568Z,101737.00
2023-04-08T08:30:36.771Z,101745.00
2023-04-08T08:33:09.400Z,101748.00
2023-04-08T08:35:39.390Z,101754.00
2023-04-08T08:38:09.351Z,101761.00
2023-04-08T08:40:39.382Z,101757.00
2023-04-08T08:43:09.392Z,101758.00
2023-04-08T08:45:42.877Z,101761.00
2023-04-08T08:48:15.505Z,101756.00
2023-04-08T08:50:45.767Z,101757.00
2023-04-08T08:53:16.307Z,101769.00
2023-04-08T08:56:15.720Z,101765.00
2023-04-08T08:58:36.310Z,101772.00
2023-04-08T09:01:06.331Z,101773.00
2023-04-08T09:03:39.149Z,101776.00
2023-04-08T09:06:11.650Z,101772.00
2023-04-08T09:08:42.990Z,101778.00
2023-04-08T09:11:18.462Z,101780.00
2023-04-08T09:13:49.417Z,101777.00
2023-04-08T09:16:23.526Z,101776.00
2023-04-08T09:18:56.874Z,101786.00
2023-04-08T09:21:28.081Z,101787.00
2023-04-08T09:23:58.054Z,101796.00
2023-04-08T09:26:28.104Z,101792.00
2023-04-08T09:29:14.391Z,101796.00
2023-04-08T09:31:48.656Z,101796.00
2023-04-08T09:34:23.400Z,101791.00
2023-04-08T09:36:53.222Z,101800.00
2023-04-08T09:39:23.521Z,101791.00
2023-04-08T09:41:54.913Z,101802.00
2023-04-08T09:44:27.603Z,101804.00
2023-04-08T09:47:09.753Z,101807.00
2023-04-08T09:49:49.938Z,101806.00
2023-04-08T09:52:27.553Z,101800.00
2023-04-08T09:55:04.362Z,101799.00
2023-04-08T09:57:43.678Z,101803.00
2023-04-08T10:00:17.196Z,101805.00
2023-04-08T10:02:58.198Z,101809.00
2023-04-08T10:05:31.278Z,101811.00
2023-04-08T10:08:01.849Z,101814.00
2023-04-08T10:10:32.158Z,101811.00
2023-04-08T10:13:02.445Z,101812.00
2023-04-08T10:15:34.223Z,101814.00
2023-04-08T10:18:38.238Z,101818.00
2023-04-08T10:21:43.548Z,101815.00
2023-04-08T10:24:14.773Z,101814.00
2023-04-08T10:26:48.923Z,101819.00
2023-04-08T10:29:37.225Z,101817.00
2023-04-08T10:32:07.325Z,101813.00
2023-04-08T10:34:37.343Z,101823.00
2023-04-08T10:37:10.894Z,101819.00
2023-04-08T10:39:40.803Z,101820.00
2023-04-08T10:42:12.402Z,101819.00
2023-04-08T10:44:48.557Z,101822.00
2023-04-08T10:47:18.628Z,101816.00
2023-04-08T10:49:49.781Z,101816.00
2023-04-08T10:52:23.616Z,101825.00
2023-04-08T10:54:53.684Z,101818.00
2023-04-08T10:57:27.591Z,101824.00
2023-04-08T10:59:57.563Z,101826.00
2023-04-08T11:02:36.454Z,101825.00
2023-04-08T11:05:07.266Z,101818.00
2023-04-08T11:07:44.417Z,101823.00
2023-04-08T11:10:14.750Z,101814.00
2023-04-08T11:12:47.018Z,101822.00
2023-04-08T11:15:17.652Z,101820.00
2023-04-08T11:17:47.858Z,101829.00
2023-04-08T11:20:17.967Z,101825.00
2023-04-08T11:22:51.449Z,101821.00
2023-04-08T11:25:22.011Z,101825.00
2023-04-08T11:27:53.028Z,101823.00
2023-04-08T11:30:24.256Z,101818.00
2023-04-08T11:32:55.962Z,101823.00
2023-04-08T11:35:26.268Z,101823.00
2023-04-08T11:37:59.597Z,101823.00
2023-04-08T11:40:30.205Z,101827.00
2023-04-08T11:43:00.376Z,101826.00
2023-04-08T11:45:30.375Z,101822.00
2023-04-08T11:48:01.163Z,101829.00
2023-04-08T11:50:32.445Z,101827.00
2023-04-08T11:53:04.961Z,101824.00
2023-04-08T11:55:35.852Z,101823.00
2023-04-08T11:58:07.904Z,101820.00
2023-04-08T12:00:38.716Z,101825.00
2023-04-08T12:03:09.691Z,101823.00
2023-04-08T12:05:39.997Z,101822.00
2023-04-08T12:08:12.556Z,101818.00
2023-04-08T12:10:42.529Z,101826.00
2023-04-08T12:13:12.475Z,101823.00
2023-04-08T12:15:42.444Z,101827.00
2023-04-08T12:18:12.396Z,101824.00
2023-04-08T12:20:42.399Z,101824.00
2023-04-08T12:23:14.924Z,101832.00
2023-04-08T12:25:44.949Z,101828.00
2023-04-08T12:28:14.894Z,101831.00
2023-04-08T12:30:44.810Z,101833.00
2023-04-08T12:33:14.763Z,101827.00
2023-04-08T12:35:45.111Z,101828.00
2023-04-08T12:38:17.693Z,101828.00
2023-04-08T12:40:49.149Z,101827.00
2023-04-08T12:43:20.208Z,101830.00
2023-04-08T12:45:50.181Z,101826.00
2023-04-08T12:48:20.243Z,101818.00
2023-04-08T12:50:50.236Z,101818.00
2023-04-08T12:53:22.786Z,101814.00
2023-04-08T12:55:57.139Z,101813.00
2023-04-08T12:58:27.967Z,101817.00
2023-04-08T13:00:57.947Z,101808.00
2023-04-08T13:03:30.570Z,101802.00
2023-04-08T13:06:00.808Z,101815.00
2023-04-08T13:08:33.393Z,101809.00
2023-04-08T13:11:03.395Z,101811.00
2023-04-08T13:13:33.372Z,101806.00
2023-04-08T13:16:03.349Z,101805.00
2023-04-08T13:18:33.394Z,101811.00
2023-04-08T13:21:03.350Z,101815.00
2023-04-08T13:23:36.948Z,101814.00
2023-04-08T13:26:06.905Z,101814.00
2023-04-08T13:28:49.754Z,101809.00
2023-04-08T13:31:26.655Z,101814.00
2023-04-08T13:33:58.215Z,101809.00
2023-04-08T13:36:29.227Z,101819.00
2023-04-08T13:39:01.921Z,101801.00
2023-04-08T13:41:31.894Z,101810.00
2023-04-08T13:44:01.840Z,101807.00
2023-04-08T13:46:31.869Z,101803.00
2023-04-08T13:49:03.278Z,101809.00
2023-04-08T13:51:33.234Z,101802.00
2023-04-08T13:54:06.024Z,101814.00
2023-04-08T13:56:36.238Z,101804.00
2023-04-08T13:59:07.478Z,101804.00
2023-04-08T14:01:37.752Z,101795.00
2023-04-08T14:04:07.775Z,101802.00
2023-04-08T14:06:37.810Z,101794.00
2023-04-08T14:09:10.719Z,101803.00
2023-04-08T14:11:40.893Z,101806.00
2023-04-08T14:14:10.844Z,101805.00
2023-04-08T14:16:41.903Z,101798.00
2023-04-08T14:19:12.332Z,101794.00
2023-04-08T14:21:42.338Z,101793.00
2023-04-08T14:24:14.924Z,101794.00
2023-04-08T14:26:45.279Z,101800.00
2023-04-08T14:29:15.277Z,101795.00
2023-04-08T14:31:45.226Z,101800.00
2023-04-08T14:34:15.233Z,101796.00
2023-04-08T14:36:45.584Z,101794.00
2023-04-08T14:39:18.125Z,101798.00
2023-04-08T14:41:50.613Z,101799.00
2023-04-08T14:44:20.596Z,101796.00
2023-04-08T14:46:50.796Z,101799.00
2023-04-08T14:49:20.769Z,101798.00
2023-04-08T14:51:52.802Z,101796.00
2023-04-08T14:54:25.910Z,101799.00
2023-04-08T14:56:56.205Z,101804.00
2023-04-08T14:59:26.139Z,101793.00
2023-04-08T15:01:56.298Z,101794.00
2023-04-08T15:04:26.502Z,101799.00
2023-04-08T15:06:56.668Z,101793.00
2023-04-08T15:09:29.194Z,101799.00
2023-04-08T15:11:59.141Z,101791.00
2023-04-08T15:14:29.084Z,101792.00
2023-04-08T15:16:59.119Z,101795.00
2023-04-08T15:19:29.102Z,101789.00
2023-04-08T15:21:59.063Z,101795.00
2023-04-08T15:24:31.587Z,101796.00
2023-04-08T15:27:01.557Z,101797.00
2023-04-08T15:29:31.640Z,101800.00
2023-04-08T15:32:02.014Z,101799.00
2023-04-08T15:34:31.962Z,101797.00
2023-04-08T15:37:02.375Z,101793.00
2023-04-08T15:39:34.938Z,101799.00
2023-04-08T15:42:05.550Z,101800.00
2023-04-08T15:44:36.329Z,101799.00
2023-04-08T15:47:06.346Z,101808.00
2023-04-08T15:49:36.377Z,101812.00
2023-04-08T15:52:06.584Z,101810.00
2023-04-08T15:54:39.470Z,101811.00
2023-04-08T15:57:09.453Z,101813.00
2023-04-08T15:59:39.491Z,101817.00
2023-04-08T16:02:09.829Z,101810.00
2023-04-08T16:04:39.967Z,101817.00
2023-04-08T16:07:09.940Z,101816.00
2023-04-08T16:09:42.487Z,101811.00
2023-04-08T16:12:14.861Z,101819.00
2023-04-08T16:14:44.808Z,101808.00
2023-04-08T16:17:14.856Z,101823.00
2023-04-08T16:19:44.847Z,101817.00
2023-04-08T16:22:14.783Z,101820.00
2023-04-08T16:24:47.325Z,101819.00
2023-04-08T16:27:17.315Z,101820.00
2023-04-08T16:29:47.570Z,101822.00
2023-04-08T16:32:17.546Z,101825.00
2023-04-08T16:34:47.764Z,101827.00
2023-04-08T16:37:17.699Z,101840.00
2023-04-08T16:39:50.325Z,101846.00
2023-04-08T16:42:20.275Z,101850.00
2023-04-08T16:44:50.224Z,101851.00
2023-04-08T16:47:20.208Z,101854.00
2023-04-08T16:49:50.156Z,101858.00
2023-04-08T16:52:20.151Z,101869.00
2023-04-08T16:54:53.342Z,101869.00
2023-04-08T16:57:23.673Z,101874.00
2023-04-08T16:59:53.665Z,101877.00
2023-04-08T17:02:24.457Z,101879.00
2023-04-08T17:04:54.536Z,101889.00
2023-04-08T17:07:24.534Z,101887.00
2023-04-08T17:09:57.887Z,101893.00
2023-04-08T17:12:28.009Z,101903.00
2023-04-08T17:14:58.044Z,101903.00
2023-04-08T17:17:28.009Z,101911.00
2023-04-08T17:19:58.401Z,101908.00
2023-04-08T17:22:28.455Z,101905.00
2023-04-08T17:25:01.358Z,101914.00
2023-04-08T17:27:31.344Z,101918.00
2023-04-08T17:30:01.467Z,101919.00
2023-04-08T17:32:31.549Z,101927.00
2023-04-08T17:35:03.016Z,101931.00
2023-04-08T17:37:32.944Z,101931.00
2023-04-08T17:40:05.535Z,101942.00
2023-04-08T17:42:35.451Z,101940.00
2023-04-08T17:45:05.710Z,101940.00
2023-04-08T17:47:35.721Z,101947.00
2023-04-08T17:50:05.732Z,101943.00
2023-04-08T17:52:35.759Z,101945.00
2023-04-08T17:55:10.202Z,101951.00
2023-04-08T17:57:40.319Z,101955.00
2023-04-08T18:00:12.222Z,101957.00
2023-04-08T18:02:42.290Z,101965.00
2023-04-08T18:05:13.782Z,101969.00
2023-04-08T18:07:43.779Z,101978.00
2023-04-08T18:10:17.441Z,101980.00
2023-04-08T18:12:48.973Z,101979.00
2023-04-08T18:15:19.394Z,101984.00
2023-04-08T18:17:49.334Z,101981.00
2023-04-08T18:20:19.485Z,101990.00
2023-04-08T18:22:49.499Z,101990.00
2023-04-08T18:25:22.592Z,101997.00
2023-04-08T18:27:52.837Z,102007.00
2023-04-08T18:30:22.803Z,102015.00
2023-04-08T18:32:52.851Z,102009.00
2023-04-08T18:35:22.850Z,102007.00
2023-04-08T18:37:52.812Z,102011.00
2023-04-08T18:40:25.658Z,102018.00
2023-04-08T18:42:55.642Z,102018.00
2023-04-08T18:45:25.762Z,102023.00
2023-04-08T18:47:56.110Z,102030.00
2023-04-08T18:50:26.222Z,102025.00
2023-04-08T18:52:56.385Z,102045.00
2023-04-08T18:55:28.938Z,102034.00
2023-04-08T18:57:59.635Z,102037.00
2023-04-08T19:00:29.575Z,102047.00
2023-04-08T19:02:59.968Z,102040.00
2023-04-08T19:05:31.678Z,102051.00
2023-04-08T19:08:02.471Z,102055.00
2023-04-08T19:10:36.885Z,102057.00
2023-04-08T19:13:06.890Z,102056.00
2023-04-08T19:15:37.216Z,102067.00
2023-04-08T19:18:07.423Z,102058.00
2023-04-08T19:20:38.039Z,102060.00
2023-04-08T19:23:08.551Z,102058.00
2023-04-08T19:25:41.208Z,102065.00
2023-04-08T19:28:13.457Z,102059.00
2023-04-08T19:30:43.870Z,102058.00
2023-04-08T19:33:14.004Z,102058.00
2023-04-08T19:35:44.372Z,102061.00
2023-04-08T19:38:14.466Z,102066.00
2023-04-08T19:40:48.087Z,102067.00
2023-04-08T19:43:18.301Z,102061.00
2023-04-08T19:45:48.232Z,102057.00
2023-04-08T19:48:18.213Z,102059.00
2023-04-08T19:50:49.117Z,102067.00
2023-04-08T19:53:20.994Z,102063.00
2023-04-08T19:55:53.528Z,102053.00
2023-04-08T19:58:24.148Z,102065.00
2023-04-08T20:00:54.089Z,102074.00
2023-04-08T20:03:24.220Z,102068.00
2023-04-08T20:05:54.517Z,102073.00
2023-04-08T20:08:24.462Z,102068.00
2023-04-08T20:10:57.055Z,102071.00
2023-04-08T20:13:27.076Z,102062.00
2023-04-08T20:15:58.145Z,102071.00
2023-04-08T20:18:28.742Z,102069.00
2023-04-08T20:20:59.751Z,102070.00
2023-04-08T20:23:30.128Z,102076.00
2023-04-08T20:26:02.895Z,102070.00
2023-04-08T20:28:32.886Z,102071.00
2023-04-08T20:31:03.027Z,102070.00
2023-04-08T20:33:33.254Z,102065.00
2023-04-08T20:36:03.532Z,102077.00
2023-04-08T20:38:35.909Z,102077.00
2023-04-08T20:41:08.471Z,102070.00
2023-04-08T20:43:39.559Z,102071.00
2023-04-08T20:46:09.538Z,102074.00
2023-04-08T20:48:39.504Z,102078.00
2023-04-08T20:51:09.758Z,102070.00
2023-04-08T20:53:41.625Z,102065.00
2023-04-08T20:56:15.683Z,102065.00
2023-04-08T20:58:45.626Z,102068.00
2023-04-08T21:01:16.005Z,102066.00
2023-04-08T21:03:46.201Z,102072.00
2023-04-08T21:06:19.598Z,102076.00
2023-04-08T21:08:50.711Z,102075.00
2023-04-08T21:11:23.633Z,102072.00
2023-04-08T21:13:53.628Z,102079.00
2023-04-08T21:16:23.614Z,102084.00
2023-04-08T21:18:53.669Z,102074.00
2023-04-08T21:21:23.704Z,102081.00
2023-04-08T21:23:53.677Z,102073.00
2023-04-08T21:26:26.275Z,102082.00
2023-04-08T21:28:56.266Z,102075.00
2023-04-08T21:31:27.053Z,102084.00
2023-04-08T21:33:57.307Z,102075.00
2023-04-08T21:36:28.049Z,102073.00
2023-04-08T21:38:58.002Z,102072.00
2023-04-08T21:41:30.680Z,102070.00
2023-04-08T21:44:00.736Z,102068.00
2023-04-08T21:46:30.834Z,102076.00
2023-04-08T21:49:00.892Z,102078.00
2023-04-08T21:51:30.848Z,102077.00
2023-04-08T21:54:00.940Z,102075.00
2023-04-08T21:56:33.491Z,102073.00
2023-04-08T21:59:03.762Z,102074.00
2023-04-08T22:01:33.894Z,102073.00
2023-04-08T22:04:04.072Z,102074.00
2023-04-08T22:06:34.209Z,102075.00
2023-04-08T22:09:04.162Z,102067.00
2023-04-08T22:11:37.068Z,102073.00
2023-04-08T22:14:07.017Z,102072.00
2023-04-08T22:16:37.107Z,102068.00
2023-04-08T22:19:07.112Z,102069.00
2023-04-08T22:21:37.095Z,102061.00
2023-04-08T22:24:07.782Z,102065.00
2023-04-08T22:26:40.321Z,102063.00
2023-04-08T22:29:10.568Z,102059.00
2023-04-08T22:31:40.560Z,102059.00
2023-04-08T22:34:10.657Z,102054.00
2023-04-08T22:36:40.652Z,102050.00
2023-04-08T22:39:10.621Z,102049.00
2023-04-08T22:41:43.367Z,102052.00
2023-04-08T22:44:13.336Z,102049.00
2023-04-08T22:46:43.297Z,102043.00
2023-04-08T22:49:13.227Z,102037.00
2023-04-08T22:51:43.511Z,102037.00
2023-04-08T22:54:13.476Z,102035.00
2023-04-08T22:56:46.121Z,102036.00
2023-04-08T22:59:16.114Z,102035.00
2023-04-08T23:01:46.207Z,102033.00
2023-04-08T23:04:16.266Z,102036.00
2023-04-08T23:06:46.422Z,102030.00
2023-04-08T23:09:16.684Z,102032.00
2023-04-08T23:11:49.270Z,102044.00
2023-04-08T23:14:19.234Z,102036.00
2023-04-08T23:16:49.188Z,102043.00
2023-04-08T23:19:19.213Z,102041.00
2023-04-08T23:21:49.176Z,102038.00
2023-04-08T23:24:19.137Z,102038.00
2023-04-08T23:26:51.677Z,102042.00
2023-04-08T23:29:21.640Z,102043.00
2023-04-08T23:31:51.639Z,102041.00
2023-04-08T23:34:21.692Z,102042.00
2023-04-08T23:36:51.790Z,102044.00
2023-04-08T23:39:21.831Z,102041.00
2023-04-08T23:41:54.382Z,102031.00
2023-04-08T23:44:24.331Z,102035.00
2023-04-08T23:46:54.389Z,102038.00
2023-04-08T23:49:24.472Z,102041.00
2023-04-08T23:51:54.449Z,102040.00
2023-04-08T23:54:24.437Z,102040.00
2023-04-08T23:56:57.430Z,102044.00
2023-04-08T23:59:28.951Z,102034.00
